sensor_id;sensor_type;location;lat;lon;timestamp;P1;durP1;ratioP1;P2;durP2;ratioP2
58808;SDS011;44579;51.672;7.834;2022-09-06T00:00:13;7.50;;;2.83;;
58808;SDS011;44579;51.672;7.834;2022-09-06T00:02:41;5.18;;;2.83;;
58808;SDS011;44579;51.672;7.834;2022-09-06T00:05:10;7.38;;;2.95;;
58808;SDS011;44579;51.672;7.834;2022-09-06T00:07:38;4.32;;;2.50;;
58808;SDS011;44579;51.672;7.834;2022-09-06T00:10:05;5.85;;;2.60;;
58808;SDS011;44579;51.672;7.834;2022-09-06T00:12:33;8.63;;;2.97;;
58808;SDS011;44579;51.672;7.834;2022-09-06T00:15:00;8.95;;;2.83;;
58808;SDS011;44579;51.672;7.834;2022-09-06T00:19:54;4.88;;;2.95;;
58808;SDS011;44579;51.672;7.834;2022-09-06T00:22:21;6.68;;;2.65;;
58808;SDS011;44579;51.672;7.834;2022-09-06T00:24:48;7.20;;;2.95;;
58808;SDS011;44579;51.672;7.834;2022-09-06T00:27:15;12.65;;;3.08;;
58808;SDS011;44579;51.672;7.834;2022-09-06T00:29:42;6.25;;;2.67;;
58808;SDS011;44579;51.672;7.834;2022-09-06T00:32:09;11.27;;;3.03;;
58808;SDS011;44579;51.672;7.834;2022-09-06T00:34:36;4.90;;;3.10;;
58808;SDS011;44579;51.672;7.834;2022-09-06T00:37:03;13.25;;;2.85;;
58808;SDS011;44579;51.672;7.834;2022-09-06T00:39:30;6.30;;;2.80;;
58808;SDS011;44579;51.672;7.834;2022-09-06T00:41:57;8.73;;;3.20;;
58808;SDS011;44579;51.672;7.834;2022-09-06T00:44:25;6.72;;;2.97;;
58808;SDS011;44579;51.672;7.834;2022-09-06T00:46:52;8.00;;;2.70;;
58808;SDS011;44579;51.672;7.834;2022-09-06T00:49:23;8.25;;;2.80;;
58808;SDS011;44579;51.672;7.834;2022-09-06T00:51:59;6.10;;;2.38;;
58808;SDS011;44579;51.672;7.834;2022-09-06T00:56:56;4.57;;;2.50;;
58808;SDS011;44579;51.672;7.834;2022-09-06T00:59:24;5.45;;;3.13;;
58808;SDS011;44579;51.672;7.834;2022-09-06T01:01:54;8.50;;;2.50;;
58808;SDS011;44579;51.672;7.834;2022-09-06T01:14:39;5.18;;;3.05;;
58808;SDS011;44579;51.672;7.834;2022-09-06T01:20:33;7.85;;;2.85;;
58808;SDS011;44579;51.672;7.834;2022-09-06T01:28:42;7.47;;;2.67;;
58808;SDS011;44579;51.672;7.834;2022-09-06T01:36:35;6.03;;;3.20;;
58808;SDS011;44579;51.672;7.834;2022-09-06T01:39:30;3.42;;;2.58;;
58808;SDS011;44579;51.672;7.834;2022-09-06T01:42:04;9.27;;;2.83;;
58808;SDS011;44579;51.672;7.834;2022-09-06T01:44:44;6.97;;;3.05;;
58808;SDS011;44579;51.672;7.834;2022-09-06T01:47:42;4.13;;;3.20;;
58808;SDS011;44579;51.672;7.834;2022-09-06T01:50:26;9.60;;;2.88;;
58808;SDS011;44579;51.672;7.834;2022-09-06T01:53:01;9.27;;;3.22;;
58808;SDS011;44579;51.672;7.834;2022-09-06T01:55:38;6.60;;;3.05;;
58808;SDS011;44579;51.672;7.834;2022-09-06T02:00:48;5.85;;;2.97;;
58808;SDS011;44579;51.672;7.834;2022-09-06T02:06:05;6.63;;;3.20;;
58808;SDS011;44579;51.672;7.834;2022-09-06T02:08:36;5.43;;;3.22;;
58808;SDS011;44579;51.672;7.834;2022-09-06T02:11:07;7.13;;;3.03;;
58808;SDS011;44579;51.672;7.834;2022-09-06T02:13:37;8.05;;;3.08;;
58808;SDS011;44579;51.672;7.834;2022-09-06T02:16:06;8.38;;;2.92;;
58808;SDS011;44579;51.672;7.834;2022-09-06T02:18:36;8.23;;;3.08;;
58808;SDS011;44579;51.672;7.834;2022-09-06T02:21:07;16.92;;;3.17;;
58808;SDS011;44579;51.672;7.834;2022-09-06T02:23:39;8.63;;;3.10;;
58808;SDS011;44579;51.672;7.834;2022-09-06T02:26:18;10.70;;;3.13;;
58808;SDS011;44579;51.672;7.834;2022-09-06T02:28:51;3.90;;;2.72;;
58808;SDS011;44579;51.672;7.834;2022-09-06T02:31:24;4.80;;;2.60;;
58808;SDS011;44579;51.672;7.834;2022-09-06T02:33:55;16.17;;;3.00;;
58808;SDS011;44579;51.672;7.834;2022-09-06T02:36:23;6.68;;;2.70;;
58808;SDS011;44579;51.672;7.834;2022-09-06T02:38:50;7.30;;;2.78;;
58808;SDS011;44579;51.672;7.834;2022-09-06T02:41:21;4.90;;;2.80;;
58808;SDS011;44579;51.672;7.834;2022-09-06T02:43:49;7.78;;;2.90;;
58808;SDS011;44579;51.672;7.834;2022-09-06T02:46:16;4.25;;;2.70;;
58808;SDS011;44579;51.672;7.834;2022-09-06T02:48:43;3.15;;;2.30;;
58808;SDS011;44579;51.672;7.834;2022-09-06T02:51:10;5.95;;;3.05;;
58808;SDS011;44579;51.672;7.834;2022-09-06T02:53:37;11.85;;;2.60;;
58808;SDS011;44579;51.672;7.834;2022-09-06T02:56:05;13.07;;;2.50;;
58808;SDS011;44579;51.672;7.834;2022-09-06T02:58:32;13.43;;;2.63;;
58808;SDS011;44579;51.672;7.834;2022-09-06T03:00:59;5.32;;;2.30;;
58808;SDS011;44579;51.672;7.834;2022-09-06T03:05:54;10.13;;;2.40;;
58808;SDS011;44579;51.672;7.834;2022-09-06T03:08:22;6.95;;;2.33;;
58808;SDS011;44579;51.672;7.834;2022-09-06T03:10:52;5.20;;;2.25;;
58808;SDS011;44579;51.672;7.834;2022-09-06T03:13:22;4.75;;;2.40;;
58808;SDS011;44579;51.672;7.834;2022-09-06T03:15:50;9.80;;;2.90;;
58808;SDS011;44579;51.672;7.834;2022-09-06T03:18:18;7.40;;;2.30;;
58808;SDS011;44579;51.672;7.834;2022-09-06T03:20:47;3.67;;;2.25;;
58808;SDS011;44579;51.672;7.834;2022-09-06T03:23:18;8.23;;;2.50;;
58808;SDS011;44579;51.672;7.834;2022-09-06T03:25:45;5.70;;;2.50;;
58808;SDS011;44579;51.672;7.834;2022-09-06T03:33:09;4.97;;;2.30;;
58808;SDS011;44579;51.672;7.834;2022-09-06T03:35:36;4.00;;;2.08;;
58808;SDS011;44579;51.672;7.834;2022-09-06T03:40:31;5.50;;;2.40;;
58808;SDS011;44579;51.672;7.834;2022-09-06T03:42:58;10.98;;;2.80;;
58808;SDS011;44579;51.672;7.834;2022-09-06T03:45:24;4.40;;;2.17;;
58808;SDS011;44579;51.672;7.834;2022-09-06T03:47:51;12.95;;;2.85;;
58808;SDS011;44579;51.672;7.834;2022-09-06T03:50:18;4.53;;;2.05;;
58808;SDS011;44579;51.672;7.834;2022-09-06T03:52:45;3.97;;;1.98;;
58808;SDS011;44579;51.672;7.834;2022-09-06T03:55:12;23.95;;;2.70;;
58808;SDS011;44579;51.672;7.834;2022-09-06T03:57:39;7.03;;;2.35;;
58808;SDS011;44579;51.672;7.834;2022-09-06T04:00:06;8.48;;;2.25;;
58808;SDS011;44579;51.672;7.834;2022-09-06T04:02:36;4.20;;;2.50;;
58808;SDS011;44579;51.672;7.834;2022-09-06T04:05:03;12.10;;;2.28;;
58808;SDS011;44579;51.672;7.834;2022-09-06T04:07:33;15.85;;;2.30;;
58808;SDS011;44579;51.672;7.834;2022-09-06T04:10:00;5.25;;;2.15;;
58808;SDS011;44579;51.672;7.834;2022-09-06T04:12:26;10.25;;;2.13;;
58808;SDS011;44579;51.672;7.834;2022-09-06T04:14:54;6.10;;;2.40;;
58808;SDS011;44579;51.672;7.834;2022-09-06T04:17:21;12.27;;;2.53;;
58808;SDS011;44579;51.672;7.834;2022-09-06T04:19:47;4.68;;;2.40;;
58808;SDS011;44579;51.672;7.834;2022-09-06T04:22:14;8.18;;;2.20;;
58808;SDS011;44579;51.672;7.834;2022-09-06T04:24:41;9.00;;;2.30;;
58808;SDS011;44579;51.672;7.834;2022-09-06T04:27:08;6.50;;;2.25;;
58808;SDS011;44579;51.672;7.834;2022-09-06T04:29:35;6.15;;;2.50;;
58808;SDS011;44579;51.672;7.834;2022-09-06T04:32:02;5.13;;;2.58;;
58808;SDS011;44579;51.672;7.834;2022-09-06T04:36:56;6.18;;;2.15;;
58808;SDS011;44579;51.672;7.834;2022-09-06T04:39:23;3.85;;;2.22;;
58808;SDS011;44579;51.672;7.834;2022-09-06T04:41:50;5.63;;;2.50;;
58808;SDS011;44579;51.672;7.834;2022-09-06T04:44:17;15.90;;;2.90;;
58808;SDS011;44579;51.672;7.834;2022-09-06T04:46:44;3.55;;;2.13;;
58808;SDS011;44579;51.672;7.834;2022-09-06T04:49:11;4.10;;;2.20;;
58808;SDS011;44579;51.672;7.834;2022-09-06T04:51:38;9.77;;;2.72;;
58808;SDS011;44579;51.672;7.834;2022-09-06T04:54:05;5.25;;;2.53;;
58808;SDS011;44579;51.672;7.834;2022-09-06T04:56:32;7.22;;;2.40;;
58808;SDS011;44579;51.672;7.834;2022-09-06T05:01:26;10.43;;;2.45;;
58808;SDS011;44579;51.672;7.834;2022-09-06T05:03:53;12.18;;;2.60;;
58808;SDS011;44579;51.672;7.834;2022-09-06T05:06:22;9.38;;;2.65;;
58808;SDS011;44579;51.672;7.834;2022-09-06T05:08:50;6.30;;;2.83;;
58808;SDS011;44579;51.672;7.834;2022-09-06T05:11:18;8.35;;;2.95;;
58808;SDS011;44579;51.672;7.834;2022-09-06T05:13:45;9.65;;;2.67;;
58808;SDS011;44579;51.672;7.834;2022-09-06T05:16:15;7.90;;;2.83;;
58808;SDS011;44579;51.672;7.834;2022-09-06T05:18:43;11.10;;;2.63;;
58808;SDS011;44579;51.672;7.834;2022-09-06T05:21:13;6.95;;;2.75;;
58808;SDS011;44579;51.672;7.834;2022-09-06T05:23:41;9.48;;;2.75;;
58808;SDS011;44579;51.672;7.834;2022-09-06T05:28:37;13.50;;;3.60;;
58808;SDS011;44579;51.672;7.834;2022-09-06T05:31:11;7.55;;;3.08;;
58808;SDS011;44579;51.672;7.834;2022-09-06T05:33:50;9.50;;;2.75;;
58808;SDS011;44579;51.672;7.834;2022-09-06T05:36:19;7.85;;;2.53;;
58808;SDS011;44579;51.672;7.834;2022-09-06T05:38:52;11.10;;;2.63;;
58808;SDS011;44579;51.672;7.834;2022-09-06T05:41:20;9.65;;;2.80;;
58808;SDS011;44579;51.672;7.834;2022-09-06T05:43:48;9.57;;;2.83;;
58808;SDS011;44579;51.672;7.834;2022-09-06T05:46:16;6.90;;;2.67;;
58808;SDS011;44579;51.672;7.834;2022-09-06T05:48:51;9.52;;;2.35;;
58808;SDS011;44579;51.672;7.834;2022-09-06T05:51:20;11.18;;;2.40;;
58808;SDS011;44579;51.672;7.834;2022-09-06T05:53:47;6.55;;;2.42;;
58808;SDS011;44579;51.672;7.834;2022-09-06T05:56:15;11.60;;;2.42;;
58808;SDS011;44579;51.672;7.834;2022-09-06T05:58:43;11.15;;;2.85;;
58808;SDS011;44579;51.672;7.834;2022-09-06T06:03:52;6.15;;;2.78;;
58808;SDS011;44579;51.672;7.834;2022-09-06T06:06:30;20.10;;;3.83;;
58808;SDS011;44579;51.672;7.834;2022-09-06T06:09:01;6.22;;;2.92;;
58808;SDS011;44579;51.672;7.834;2022-09-06T06:11:28;10.18;;;2.70;;
58808;SDS011;44579;51.672;7.834;2022-09-06T06:13:56;13.45;;;3.85;;
58808;SDS011;44579;51.672;7.834;2022-09-06T06:16:24;9.55;;;3.22;;
58808;SDS011;44579;51.672;7.834;2022-09-06T06:18:51;8.82;;;3.42;;
58808;SDS011;44579;51.672;7.834;2022-09-06T06:21:19;8.07;;;3.95;;
58808;SDS011;44579;51.672;7.834;2022-09-06T06:23:48;9.90;;;4.30;;
58808;SDS011;44579;51.672;7.834;2022-09-06T06:26:17;12.63;;;3.50;;
58808;SDS011;44579;51.672;7.834;2022-09-06T06:31:11;13.18;;;3.55;;
58808;SDS011;44579;51.672;7.834;2022-09-06T06:33:39;7.00;;;3.20;;
58808;SDS011;44579;51.672;7.834;2022-09-06T06:36:17;7.75;;;3.53;;
58808;SDS011;44579;51.672;7.834;2022-09-06T06:38:47;13.35;;;4.22;;
58808;SDS011;44579;51.672;7.834;2022-09-06T06:41:16;10.27;;;3.90;;
58808;SDS011;44579;51.672;7.834;2022-09-06T06:43:44;12.38;;;4.03;;
58808;SDS011;44579;51.672;7.834;2022-09-06T06:46:13;9.23;;;3.28;;
58808;SDS011;44579;51.672;7.834;2022-09-06T06:48:44;11.25;;;3.55;;
58808;SDS011;44579;51.672;7.834;2022-09-06T06:51:16;11.63;;;3.50;;
58808;SDS011;44579;51.672;7.834;2022-09-06T06:53:46;10.85;;;3.65;;
58808;SDS011;44579;51.672;7.834;2022-09-06T06:56:15;6.35;;;3.35;;
58808;SDS011;44579;51.672;7.834;2022-09-06T06:58:47;12.20;;;3.60;;
58808;SDS011;44579;51.672;7.834;2022-09-06T07:01:17;8.98;;;3.28;;
58808;SDS011;44579;51.672;7.834;2022-09-06T07:03:45;9.88;;;2.92;;
58808;SDS011;44579;51.672;7.834;2022-09-06T07:06:13;11.23;;;3.40;;
58808;SDS011;44579;51.672;7.834;2022-09-06T07:08:40;9.23;;;3.38;;
58808;SDS011;44579;51.672;7.834;2022-09-06T07:11:12;7.32;;;3.20;;
58808;SDS011;44579;51.672;7.834;2022-09-06T07:13:40;5.28;;;3.10;;
58808;SDS011;44579;51.672;7.834;2022-09-06T07:16:08;7.68;;;2.83;;
58808;SDS011;44579;51.672;7.834;2022-09-06T07:18:43;8.07;;;2.80;;
58808;SDS011;44579;51.672;7.834;2022-09-06T07:21:12;10.95;;;2.83;;
58808;SDS011;44579;51.672;7.834;2022-09-06T07:24:04;5.30;;;2.38;;
58808;SDS011;44579;51.672;7.834;2022-09-06T07:26:35;9.98;;;2.85;;
58808;SDS011;44579;51.672;7.834;2022-09-06T07:29:05;6.60;;;2.90;;
58808;SDS011;44579;51.672;7.834;2022-09-06T07:31:33;9.95;;;2.70;;
58808;SDS011;44579;51.672;7.834;2022-09-06T07:34:20;14.32;;;3.20;;
58808;SDS011;44579;51.672;7.834;2022-09-06T07:36:50;9.88;;;2.70;;
58808;SDS011;44579;51.672;7.834;2022-09-06T07:39:18;16.92;;;3.00;;
58808;SDS011;44579;51.672;7.834;2022-09-06T07:41:45;9.85;;;3.25;;
58808;SDS011;44579;51.672;7.834;2022-09-06T07:44:12;5.63;;;2.70;;
58808;SDS011;44579;51.672;7.834;2022-09-06T07:46:38;6.35;;;2.58;;
58808;SDS011;44579;51.672;7.834;2022-09-06T07:49:06;13.57;;;3.13;;
58808;SDS011;44579;51.672;7.834;2022-09-06T07:51:32;6.95;;;3.25;;
58808;SDS011;44579;51.672;7.834;2022-09-06T07:53:59;10.77;;;2.97;;
58808;SDS011;44579;51.672;7.834;2022-09-06T07:56:47;7.70;;;3.08;;
58808;SDS011;44579;51.672;7.834;2022-09-06T07:59:14;12.00;;;3.15;;
58808;SDS011;44579;51.672;7.834;2022-09-06T08:01:41;13.27;;;2.70;;
58808;SDS011;44579;51.672;7.834;2022-09-06T08:04:08;8.18;;;3.08;;
58808;SDS011;44579;51.672;7.834;2022-09-06T08:06:49;6.10;;;2.95;;
58808;SDS011;44579;51.672;7.834;2022-09-06T08:09:37;6.35;;;2.35;;
58808;SDS011;44579;51.672;7.834;2022-09-06T08:12:04;15.70;;;2.97;;
58808;SDS011;44579;51.672;7.834;2022-09-06T08:14:34;9.02;;;2.53;;
58808;SDS011;44579;51.672;7.834;2022-09-06T08:17:02;5.85;;;2.50;;
58808;SDS011;44579;51.672;7.834;2022-09-06T08:19:30;5.90;;;2.65;;
58808;SDS011;44579;51.672;7.834;2022-09-06T08:21:57;3.88;;;2.58;;
58808;SDS011;44579;51.672;7.834;2022-09-06T08:24:24;5.47;;;2.15;;
58808;SDS011;44579;51.672;7.834;2022-09-06T08:26:51;5.65;;;2.30;;
58808;SDS011;44579;51.672;7.834;2022-09-06T08:29:18;4.78;;;2.33;;
58808;SDS011;44579;51.672;7.834;2022-09-06T08:31:45;3.88;;;2.30;;
58808;SDS011;44579;51.672;7.834;2022-09-06T08:34:13;5.88;;;2.80;;
58808;SDS011;44579;51.672;7.834;2022-09-06T08:36:40;5.28;;;2.70;;
58808;SDS011;44579;51.672;7.834;2022-09-06T08:39:08;5.93;;;2.50;;
58808;SDS011;44579;51.672;7.834;2022-09-06T08:41:47;6.40;;;2.58;;
58808;SDS011;44579;51.672;7.834;2022-09-06T08:44:16;5.28;;;2.45;;
58808;SDS011;44579;51.672;7.834;2022-09-06T08:47:11;3.20;;;2.28;;
58808;SDS011;44579;51.672;7.834;2022-09-06T08:49:43;20.48;;;2.35;;
58808;SDS011;44579;51.672;7.834;2022-09-06T08:55:12;3.92;;;1.83;;
58808;SDS011;44579;51.672;7.834;2022-09-06T09:00:38;3.00;;;2.03;;
58808;SDS011;44579;51.672;7.834;2022-09-06T09:03:11;4.05;;;2.25;;
58808;SDS011;44579;51.672;7.834;2022-09-06T09:05:43;3.75;;;2.30;;
58808;SDS011;44579;51.672;7.834;2022-09-06T09:08:20;7.22;;;2.50;;
58808;SDS011;44579;51.672;7.834;2022-09-06T09:13:24;9.15;;;2.40;;
58808;SDS011;44579;51.672;7.834;2022-09-06T09:15:59;4.83;;;2.50;;
58808;SDS011;44579;51.672;7.834;2022-09-06T09:18:26;3.17;;;2.47;;
58808;SDS011;44579;51.672;7.834;2022-09-06T09:20:56;4.35;;;1.98;;
58808;SDS011;44579;51.672;7.834;2022-09-06T09:23:24;3.78;;;2.40;;
58808;SDS011;44579;51.672;7.834;2022-09-06T09:25:52;9.35;;;2.55;;
58808;SDS011;44579;51.672;7.834;2022-09-06T09:28:22;9.75;;;2.13;;
58808;SDS011;44579;51.672;7.834;2022-09-06T09:30:51;9.07;;;1.83;;
58808;SDS011;44579;51.672;7.834;2022-09-06T09:33:27;4.22;;;1.70;;
58808;SDS011;44579;51.672;7.834;2022-09-06T09:36:11;3.35;;;1.80;;
58808;SDS011;44579;51.672;7.834;2022-09-06T09:38:43;6.47;;;1.90;;
58808;SDS011;44579;51.672;7.834;2022-09-06T09:41:28;9.60;;;1.90;;
58808;SDS011;44579;51.672;7.834;2022-09-06T09:43:59;14.40;;;2.30;;
58808;SDS011;44579;51.672;7.834;2022-09-06T09:46:33;3.83;;;2.40;;
58808;SDS011;44579;51.672;7.834;2022-09-06T09:49:04;4.18;;;1.70;;
58808;SDS011;44579;51.672;7.834;2022-09-06T09:51:41;9.38;;;2.00;;
58808;SDS011;44579;51.672;7.834;2022-09-06T09:54:11;5.63;;;1.80;;
58808;SDS011;44579;51.672;7.834;2022-09-06T09:56:49;16.08;;;2.15;;
58808;SDS011;44579;51.672;7.834;2022-09-06T10:01:54;11.38;;;1.90;;
58808;SDS011;44579;51.672;7.834;2022-09-06T10:04:27;10.32;;;1.90;;
58808;SDS011;44579;51.672;7.834;2022-09-06T10:09:42;3.47;;;1.70;;
58808;SDS011;44579;51.672;7.834;2022-09-06T10:12:26;4.75;;;2.10;;
58808;SDS011;44579;51.672;7.834;2022-09-06T10:14:56;7.93;;;1.80;;
58808;SDS011;44579;51.672;7.834;2022-09-06T10:17:27;4.80;;;1.63;;
58808;SDS011;44579;51.672;7.834;2022-09-06T10:19:58;2.58;;;1.33;;
58808;SDS011;44579;51.672;7.834;2022-09-06T10:39:58;4.63;;;1.40;;
58808;SDS011;44579;51.672;7.834;2022-09-06T10:45:28;6.03;;;1.83;;
58808;SDS011;44579;51.672;7.834;2022-09-06T10:50:41;7.05;;;1.52;;
58808;SDS011;44579;51.672;7.834;2022-09-06T10:53:15;4.97;;;1.77;;
58808;SDS011;44579;51.672;7.834;2022-09-06T10:56:37;4.75;;;1.50;;
58808;SDS011;44579;51.672;7.834;2022-09-06T10:59:37;13.57;;;2.05;;
58808;SDS011;44579;51.672;7.834;2022-09-06T11:04:52;5.93;;;1.77;;
58808;SDS011;44579;51.672;7.834;2022-09-06T11:07:53;5.90;;;1.90;;
58808;SDS011;44579;51.672;7.834;2022-09-06T11:10:46;5.25;;;1.60;;
58808;SDS011;44579;51.672;7.834;2022-09-06T11:13:17;14.38;;;1.90;;
58808;SDS011;44579;51.672;7.834;2022-09-06T11:18:41;7.30;;;1.73;;
58808;SDS011;44579;51.672;7.834;2022-09-06T11:29:40;3.33;;;2.00;;
58808;SDS011;44579;51.672;7.834;2022-09-06T11:34:59;4.70;;;1.80;;
58808;SDS011;44579;51.672;7.834;2022-09-06T11:37:33;7.22;;;1.58;;
58808;SDS011;44579;51.672;7.834;2022-09-06T11:40:20;5.43;;;1.70;;
58808;SDS011;44579;51.672;7.834;2022-09-06T11:51:00;3.35;;;1.40;;
58808;SDS011;44579;51.672;7.834;2022-09-06T11:54:10;6.10;;;1.38;;
58808;SDS011;44579;51.672;7.834;2022-09-06T11:56:35;5.22;;;1.60;;
58808;SDS011;44579;51.672;7.834;2022-09-06T12:02:03;6.47;;;1.55;;
58808;SDS011;44579;51.672;7.834;2022-09-06T12:07:29;5.63;;;1.38;;
58808;SDS011;44579;51.672;7.834;2022-09-06T12:10:00;3.90;;;1.63;;
58808;SDS011;44579;51.672;7.834;2022-09-06T12:12:48;5.90;;;1.77;;
58808;SDS011;44579;51.672;7.834;2022-09-06T12:15:52;5.38;;;1.45;;
58808;SDS011;44579;51.672;7.834;2022-09-06T12:18:50;4.72;;;1.80;;
58808;SDS011;44579;51.672;7.834;2022-09-06T12:21:08;4.07;;;1.60;;
58808;SDS011;44579;51.672;7.834;2022-09-06T12:23:56;6.22;;;1.30;;
58808;SDS011;44579;51.672;7.834;2022-09-06T12:29:24;4.85;;;1.30;;
58808;SDS011;44579;51.672;7.834;2022-09-06T12:31:56;2.33;;;1.42;;
58808;SDS011;44579;51.672;7.834;2022-09-06T12:34:30;2.70;;;1.02;;
58808;SDS011;44579;51.672;7.834;2022-09-06T12:37:00;1.67;;;1.08;;
58808;SDS011;44579;51.672;7.834;2022-09-06T12:39:32;11.02;;;1.45;;
58808;SDS011;44579;51.672;7.834;2022-09-06T12:42:09;6.30;;;1.10;;
58808;SDS011;44579;51.672;7.834;2022-09-06T12:44:41;2.17;;;0.98;;
58808;SDS011;44579;51.672;7.834;2022-09-06T12:47:17;3.22;;;0.98;;
58808;SDS011;44579;51.672;7.834;2022-09-06T12:52:55;4.60;;;1.45;;
58808;SDS011;44579;51.672;7.834;2022-09-06T12:55:28;4.85;;;1.27;;
58808;SDS011;44579;51.672;7.834;2022-09-06T12:58:07;2.88;;;1.30;;
58808;SDS011;44579;51.672;7.834;2022-09-06T13:00:46;4.40;;;1.70;;
58808;SDS011;44579;51.672;7.834;2022-09-06T13:03:24;47.53;;;9.48;;
58808;SDS011;44579;51.672;7.834;2022-09-06T13:05:57;12.02;;;2.97;;
58808;SDS011;44579;51.672;7.834;2022-09-06T13:08:28;3.92;;;1.58;;
58808;SDS011;44579;51.672;7.834;2022-09-06T13:11:03;2.75;;;1.25;;
58808;SDS011;44579;51.672;7.834;2022-09-06T13:13:36;3.65;;;1.00;;
58808;SDS011;44579;51.672;7.834;2022-09-06T13:16:18;7.38;;;1.50;;
58808;SDS011;44579;51.672;7.834;2022-09-06T13:21:43;2.85;;;1.05;;
58808;SDS011;44579;51.672;7.834;2022-09-06T13:24:45;3.38;;;1.33;;
58808;SDS011;44579;51.672;7.834;2022-09-06T13:27:23;5.22;;;1.85;;
58808;SDS011;44579;51.672;7.834;2022-09-06T13:33:00;3.80;;;1.52;;
58808;SDS011;44579;51.672;7.834;2022-09-06T13:35:29;4.70;;;1.50;;
58808;SDS011;44579;51.672;7.834;2022-09-06T13:40:59;2.88;;;1.00;;
58808;SDS011;44579;51.672;7.834;2022-09-06T13:43:43;9.98;;;1.58;;
58808;SDS011;44579;51.672;7.834;2022-09-06T13:46:15;8.73;;;1.48;;
58808;SDS011;44579;51.672;7.834;2022-09-06T13:48:42;4.38;;;1.30;;
58808;SDS011;44579;51.672;7.834;2022-09-06T13:51:10;4.97;;;1.27;;
58808;SDS011;44579;51.672;7.834;2022-09-06T13:53:38;8.30;;;1.70;;
58808;SDS011;44579;51.672;7.834;2022-09-06T13:56:09;5.10;;;1.30;;
58808;SDS011;44579;51.672;7.834;2022-09-06T13:58:37;2.60;;;0.98;;
58808;SDS011;44579;51.672;7.834;2022-09-06T14:01:04;4.63;;;1.45;;
58808;SDS011;44579;51.672;7.834;2022-09-06T14:03:36;6.80;;;1.48;;
58808;SDS011;44579;51.672;7.834;2022-09-06T14:06:05;4.85;;;1.55;;
58808;SDS011;44579;51.672;7.834;2022-09-06T14:08:33;4.75;;;1.48;;
58808;SDS011;44579;51.672;7.834;2022-09-06T14:11:21;3.35;;;1.27;;
58808;SDS011;44579;51.672;7.834;2022-09-06T14:13:49;8.13;;;1.50;;
58808;SDS011;44579;51.672;7.834;2022-09-06T14:18:43;7.43;;;1.40;;
58808;SDS011;44579;51.672;7.834;2022-09-06T14:23:37;4.85;;;1.60;;
58808;SDS011;44579;51.672;7.834;2022-09-06T14:26:04;4.13;;;1.30;;
58808;SDS011;44579;51.672;7.834;2022-09-06T14:28:33;6.15;;;1.30;;
58808;SDS011;44579;51.672;7.834;2022-09-06T14:31:17;5.65;;;1.35;;
58808;SDS011;44579;51.672;7.834;2022-09-06T14:33:46;5.10;;;1.25;;
58808;SDS011;44579;51.672;7.834;2022-09-06T14:36:14;4.57;;;1.40;;
58808;SDS011;44579;51.672;7.834;2022-09-06T14:38:45;2.38;;;1.13;;
58808;SDS011;44579;51.672;7.834;2022-09-06T14:41:14;5.57;;;1.30;;
58808;SDS011;44579;51.672;7.834;2022-09-06T14:43:46;7.88;;;1.30;;
58808;SDS011;44579;51.672;7.834;2022-09-06T14:46:16;3.55;;;1.40;;
58808;SDS011;44579;51.672;7.834;2022-09-06T14:48:45;3.22;;;1.23;;
58808;SDS011;44579;51.672;7.834;2022-09-06T14:51:21;4.38;;;1.63;;
58808;SDS011;44579;51.672;7.834;2022-09-06T14:53:53;4.20;;;1.55;;
58808;SDS011;44579;51.672;7.834;2022-09-06T14:56:25;2.88;;;1.50;;
58808;SDS011;44579;51.672;7.834;2022-09-06T14:58:55;5.80;;;1.52;;
58808;SDS011;44579;51.672;7.834;2022-09-06T15:01:24;3.33;;;1.15;;
58808;SDS011;44579;51.672;7.834;2022-09-06T15:03:58;2.78;;;1.50;;
58808;SDS011;44579;51.672;7.834;2022-09-06T15:06:29;4.38;;;1.30;;
58808;SDS011;44579;51.672;7.834;2022-09-06T15:08:57;3.00;;;1.10;;
58808;SDS011;44579;51.672;7.834;2022-09-06T15:11:33;4.70;;;1.50;;
58808;SDS011;44579;51.672;7.834;2022-09-06T15:14:03;3.40;;;1.40;;
58808;SDS011;44579;51.672;7.834;2022-09-06T15:16:34;2.33;;;1.00;;
58808;SDS011;44579;51.672;7.834;2022-09-06T15:19:03;3.65;;;1.50;;
58808;SDS011;44579;51.672;7.834;2022-09-06T15:21:35;2.72;;;1.08;;
58808;SDS011;44579;51.672;7.834;2022-09-06T15:24:03;7.72;;;1.20;;
58808;SDS011;44579;51.672;7.834;2022-09-06T15:26:37;2.95;;;1.20;;
58808;SDS011;44579;51.672;7.834;2022-09-06T15:29:04;4.57;;;1.23;;
58808;SDS011;44579;51.672;7.834;2022-09-06T15:31:32;7.93;;;1.05;;
58808;SDS011;44579;51.672;7.834;2022-09-06T15:34:00;6.65;;;1.58;;
58808;SDS011;44579;51.672;7.834;2022-09-06T15:36:28;3.03;;;1.23;;
58808;SDS011;44579;51.672;7.834;2022-09-06T15:38:57;3.05;;;1.15;;
58808;SDS011;44579;51.672;7.834;2022-09-06T15:41:27;4.88;;;1.25;;
58808;SDS011;44579;51.672;7.834;2022-09-06T15:44:00;6.38;;;1.30;;
58808;SDS011;44579;51.672;7.834;2022-09-06T15:49:22;3.05;;;1.20;;
58808;SDS011;44579;51.672;7.834;2022-09-06T15:51:55;6.28;;;1.55;;
58808;SDS011;44579;51.672;7.834;2022-09-06T15:54:23;4.85;;;1.25;;
58808;SDS011;44579;51.672;7.834;2022-09-06T15:57:11;8.30;;;1.65;;
58808;SDS011;44579;51.672;7.834;2022-09-06T15:59:38;4.22;;;1.23;;
58808;SDS011;44579;51.672;7.834;2022-09-06T16:02:06;2.75;;;1.30;;
58808;SDS011;44579;51.672;7.834;2022-09-06T16:04:36;7.07;;;1.25;;
58808;SDS011;44579;51.672;7.834;2022-09-06T16:07:03;2.72;;;1.73;;
58808;SDS011;44579;51.672;7.834;2022-09-06T16:09:31;13.85;;;6.07;;
58808;SDS011;44579;51.672;7.834;2022-09-06T16:11:58;4.93;;;1.40;;
58808;SDS011;44579;51.672;7.834;2022-09-06T16:14:25;2.45;;;1.27;;
58808;SDS011;44579;51.672;7.834;2022-09-06T16:16:53;7.63;;;1.67;;
58808;SDS011;44579;51.672;7.834;2022-09-06T16:19:21;8.25;;;1.35;;
58808;SDS011;44579;51.672;7.834;2022-09-06T16:21:49;8.55;;;1.25;;
58808;SDS011;44579;51.672;7.834;2022-09-06T16:24:16;4.53;;;1.33;;
58808;SDS011;44579;51.672;7.834;2022-09-06T16:26:44;3.72;;;1.17;;
58808;SDS011;44579;51.672;7.834;2022-09-06T16:29:15;2.92;;;1.00;;
58808;SDS011;44579;51.672;7.834;2022-09-06T16:31:43;1.85;;;1.20;;
58808;SDS011;44579;51.672;7.834;2022-09-06T16:34:11;2.42;;;1.10;;
58808;SDS011;44579;51.672;7.834;2022-09-06T16:36:39;4.90;;;1.33;;
58808;SDS011;44579;51.672;7.834;2022-09-06T16:39:06;8.10;;;1.20;;
58808;SDS011;44579;51.672;7.834;2022-09-06T16:41:41;2.42;;;1.13;;
58808;SDS011;44579;51.672;7.834;2022-09-06T16:44:11;2.88;;;1.10;;
58808;SDS011;44579;51.672;7.834;2022-09-06T16:46:45;3.17;;;1.10;;
58808;SDS011;44579;51.672;7.834;2022-09-06T16:49:14;3.85;;;1.40;;
58808;SDS011;44579;51.672;7.834;2022-09-06T16:51:43;1.90;;;1.10;;
58808;SDS011;44579;51.672;7.834;2022-09-06T16:54:10;9.70;;;1.52;;
58808;SDS011;44579;51.672;7.834;2022-09-06T16:56:38;3.50;;;1.70;;
58808;SDS011;44579;51.672;7.834;2022-09-06T16:59:05;2.30;;;1.00;;
58808;SDS011;44579;51.672;7.834;2022-09-06T17:01:35;8.63;;;1.45;;
58808;SDS011;44579;51.672;7.834;2022-09-06T17:04:03;6.78;;;1.60;;
58808;SDS011;44579;51.672;7.834;2022-09-06T17:06:33;4.78;;;1.75;;
58808;SDS011;44579;51.672;7.834;2022-09-06T17:09:07;3.58;;;1.27;;
58808;SDS011;44579;51.672;7.834;2022-09-06T17:11:35;9.30;;;1.48;;
58808;SDS011;44579;51.672;7.834;2022-09-06T17:14:03;4.20;;;1.73;;
58808;SDS011;44579;51.672;7.834;2022-09-06T17:16:32;3.40;;;1.15;;
58808;SDS011;44579;51.672;7.834;2022-09-06T17:19:18;2.85;;;1.30;;
58808;SDS011;44579;51.672;7.834;2022-09-06T17:21:45;5.72;;;1.50;;
58808;SDS011;44579;51.672;7.834;2022-09-06T17:24:20;4.88;;;1.50;;
58808;SDS011;44579;51.672;7.834;2022-09-06T17:26:48;8.43;;;2.35;;
58808;SDS011;44579;51.672;7.834;2022-09-06T17:29:15;8.52;;;1.50;;
58808;SDS011;44579;51.672;7.834;2022-09-06T17:31:42;3.47;;;1.50;;
58808;SDS011;44579;51.672;7.834;2022-09-06T17:34:11;2.70;;;1.20;;
58808;SDS011;44579;51.672;7.834;2022-09-06T17:36:38;3.85;;;1.65;;